createdAt,value
2023-01-08T00:00:49.477Z,996.66
2023-01-08T00:01:52.457Z,996.66
2023-01-08T00:02:52.103Z,996.66
2023-01-08T00:03:50.770Z,996.69
2023-01-08T00:04:51.233Z,996.72
2023-01-08T00:05:50.380Z,996.75
2023-01-08T00:06:51.956Z,996.64
2023-01-08T00:07:50.729Z,996.65
2023-01-08T00:08:50.903Z,996.66
2023-01-08T00:09:51.066Z,996.65
2023-01-08T00:10:51.265Z,996.67
2023-01-08T00:11:51.480Z,996.64
2023-01-08T00:12:51.660Z,996.76
2023-01-08T00:13:51.855Z,996.71
2023-01-08T00:14:53.826Z,996.65
2023-01-08T00:15:52.219Z,996.75
2023-01-08T00:16:53.073Z,996.64
2023-01-08T00:17:52.522Z,996.62
2023-01-08T00:18:53.467Z,996.59
2023-01-08T00:19:52.857Z,996.64
2023-01-08T00:20:53.523Z,996.56
2023-01-08T00:21:54.001Z,996.54
2023-01-08T00:22:53.408Z,996.53
2023-01-08T00:23:54.526Z,996.53
2023-01-08T00:24:53.793Z,996.48
2023-01-08T00:25:53.981Z,996.46
2023-01-08T00:26:55.964Z,996.38
2023-01-08T00:27:54.509Z,996.47
2023-01-08T00:28:54.580Z,996.48
2023-01-08T00:29:56.329Z,996.41
2023-01-08T00:30:55.034Z,996.45
2023-01-08T00:31:56.979Z,996.39
2023-01-08T00:32:55.278Z,996.39
2023-01-08T00:33:56.470Z,996.45
2023-01-08T00:34:55.622Z,996.38
2023-01-08T00:35:56.976Z,996.40
2023-01-08T00:36:56.026Z,996.44
2023-01-08T00:37:56.198Z,996.47
2023-01-08T00:38:56.360Z,996.45
2023-01-08T00:39:56.589Z,996.40
2023-01-08T00:40:57.965Z,996.40
2023-01-08T00:41:58.967Z,996.40
2023-01-08T00:42:57.211Z,996.40
2023-01-08T00:43:58.006Z,996.34
2023-01-08T00:44:57.633Z,996.27
2023-01-08T00:45:59.582Z,996.18
2023-01-08T00:46:57.852Z,996.23
2023-01-08T00:47:58.006Z,996.22
2023-01-08T00:48:58.163Z,996.35
2023-01-08T00:49:58.516Z,996.36
2023-01-08T00:50:58.557Z,996.35
2023-01-08T00:51:59.333Z,996.42
2023-01-08T00:52:58.878Z,996.53
2023-01-08T00:54:00.490Z,996.49
2023-01-08T00:54:59.261Z,996.48
2023-01-08T00:55:59.447Z,996.50
2023-01-08T00:56:59.632Z,996.49
2023-01-08T00:57:59.809Z,996.36
2023-01-08T00:58:59.995Z,996.47
2023-01-08T01:00:01.105Z,996.42
2023-01-08T01:01:01.389Z,996.47
2023-01-08T01:02:00.804Z,996.47
2023-01-08T01:03:01.472Z,996.45
2023-01-08T01:04:01.001Z,996.46
2023-01-08T01:05:01.973Z,996.47
2023-01-08T01:06:01.395Z,996.46
2023-01-08T01:07:02.510Z,996.51
2023-01-08T01:08:02.470Z,996.44
2023-01-08T01:09:02.011Z,996.38
2023-01-08T01:10:02.185Z,996.31
2023-01-08T01:11:02.974Z,996.31
2023-01-08T01:12:03.064Z,996.23
2023-01-08T01:13:03.643Z,996.20
2023-01-08T01:14:02.775Z,996.15
2023-01-08T01:15:02.970Z,996.19
2023-01-08T01:16:03.246Z,996.07
2023-01-08T01:17:03.402Z,996.05
2023-01-08T01:18:03.515Z,996.09
2023-01-08T01:19:03.671Z,996.12
2023-01-08T01:20:03.851Z,996.02
2023-01-08T01:21:04.020Z,996.13
2023-01-08T01:22:04.189Z,996.17
2023-01-08T01:23:04.342Z,996.16
2023-01-08T01:24:04.505Z,996.09
2023-01-08T01:25:04.672Z,996.16
2023-01-08T01:26:05.478Z,996.06
2023-01-08T01:27:05.533Z,996.06
2023-01-08T01:28:05.204Z,996.01
2023-01-08T01:29:05.980Z,996.00
2023-01-08T01:30:05.622Z,996.01
2023-01-08T01:31:07.660Z,996.05
2023-01-08T01:32:05.909Z,996.08
2023-01-08T01:33:06.081Z,996.03
2023-01-08T01:34:06.252Z,996.12
2023-01-08T01:35:06.399Z,996.16
2023-01-08T01:36:06.533Z,996.27
2023-01-08T01:37:08.419Z,996.24
2023-01-08T01:38:06.920Z,996.24
2023-01-08T01:39:08.486Z,996.19
2023-01-08T01:40:07.230Z,996.21
2023-01-08T01:41:08.976Z,996.20
2023-01-08T01:42:07.583Z,996.22
2023-01-08T01:43:07.723Z,996.25
2023-01-08T01:44:07.897Z,996.15
2023-01-08T01:45:08.981Z,996.20
2023-01-08T01:46:09.051Z,996.21
2023-01-08T01:47:08.542Z,996.27
2023-01-08T01:48:08.583Z,996.30
2023-01-08T01:49:09.031Z,996.32
2023-01-08T01:50:09.485Z,996.26
2023-01-08T01:51:09.183Z,996.31
2023-01-08T01:52:09.357Z,996.25
2023-01-08T01:53:10.539Z,996.21
2023-01-08T01:54:10.524Z,996.27
2023-01-08T01:55:09.946Z,996.24
2023-01-08T01:56:10.165Z,996.22
2023-01-08T01:57:11.505Z,996.31
2023-01-08T01:58:10.545Z,996.31
2023-01-08T01:59:10.723Z,996.27
2023-01-08T02:00:10.929Z,996.15
2023-01-08T02:01:12.130Z,996.28
2023-01-08T02:02:12.595Z,996.25
2023-01-08T02:03:11.555Z,996.22
2023-01-08T02:04:11.813Z,996.27
2023-01-08T02:05:12.528Z,996.29
2023-01-08T02:06:12.052Z,996.34
2023-01-08T02:07:13.281Z,996.28
2023-01-08T02:08:12.461Z,996.28
2023-01-08T02:09:14.347Z,996.26
2023-01-08T02:10:13.530Z,996.31
2023-01-08T02:11:13.990Z,996.30
2023-01-08T02:12:14.987Z,996.27
2023-01-08T02:13:14.029Z,996.34
2023-01-08T02:14:13.702Z,996.34
2023-01-08T02:15:14.523Z,996.33
2023-01-08T02:16:15.891Z,996.39
2023-01-08T02:17:14.634Z,996.32
2023-01-08T02:18:15.036Z,996.38
2023-01-08T02:19:16.489Z,996.36
2023-01-08T02:20:15.991Z,996.37
2023-01-08T02:21:14.895Z,996.38
2023-01-08T02:22:15.045Z,996.40
2023-01-08T02:23:15.273Z,996.27
2023-01-08T02:24:15.439Z,996.25
2023-01-08T02:25:16.535Z,996.23
2023-01-08T02:26:15.815Z,996.21
2023-01-08T02:27:15.992Z,996.23
2023-01-08T02:28:16.184Z,996.23
2023-01-08T02:29:17.002Z,996.12
2023-01-08T02:30:16.499Z,996.11
2023-01-08T02:31:17.737Z,996.07
2023-01-08T02:32:16.906Z,995.95
2023-01-08T02:33:16.944Z,996.03
2023-01-08T02:34:18.111Z,996.03
2023-01-08T02:35:17.232Z,995.92
2023-01-08T02:36:17.375Z,995.88
2023-01-08T02:37:17.526Z,995.93
2023-01-08T02:38:17.693Z,995.94
2023-01-08T02:39:17.861Z,995.97
2023-01-08T02:40:18.031Z,995.84
2023-01-08T02:41:18.213Z,995.92
2023-01-08T02:42:18.405Z,995.82
2023-01-08T02:43:18.563Z,995.85
2023-01-08T02:44:18.702Z,995.89
2023-01-08T02:45:20.492Z,995.86
2023-01-08T02:46:19.056Z,995.75
2023-01-08T02:47:19.206Z,995.83
2023-01-08T02:48:19.235Z,995.86
2023-01-08T02:49:19.395Z,995.83
2023-01-08T02:50:19.550Z,995.67
2023-01-08T02:51:20.050Z,995.78
2023-01-08T02:52:20.496Z,995.75
2023-01-08T02:53:20.157Z,995.72
2023-01-08T02:54:20.296Z,995.73
2023-01-08T02:55:22.001Z,995.76
2023-01-08T02:56:20.593Z,995.72
2023-01-08T02:57:20.749Z,995.67
2023-01-08T02:58:20.905Z,995.66
2023-01-08T02:59:22.030Z,995.73
2023-01-08T03:00:21.264Z,995.74
2023-01-08T03:01:22.132Z,995.67
2023-01-08T03:02:22.464Z,995.58
2023-01-08T03:03:21.829Z,995.70
2023-01-08T03:04:22.656Z,995.61
2023-01-08T03:05:22.163Z,995.55
2023-01-08T03:06:23.862Z,995.51
2023-01-08T03:07:23.866Z,995.50
2023-01-08T03:08:24.496Z,995.58
2023-01-08T03:09:22.722Z,995.56
2023-01-08T03:10:22.893Z,995.54
2023-01-08T03:11:23.143Z,995.56
2023-01-08T03:12:24.170Z,995.55
2023-01-08T03:13:23.399Z,995.55
2023-01-08T03:14:23.569Z,995.51
2023-01-08T03:15:24.050Z,995.50
2023-01-08T03:16:24.066Z,995.57
2023-01-08T03:17:24.099Z,995.44
2023-01-08T03:18:25.093Z,995.49
2023-01-08T03:19:24.459Z,995.40
2023-01-08T03:20:24.608Z,995.43
2023-01-08T03:21:25.996Z,995.37
2023-01-08T03:22:25.536Z,995.35
2023-01-08T03:23:25.171Z,995.40
2023-01-08T03:24:26.041Z,995.38
2023-01-08T03:25:28.368Z,995.41
2023-01-08T03:26:26.075Z,995.34
2023-01-08T03:27:26.543Z,995.36
2023-01-08T03:28:27.045Z,995.33
2023-01-08T03:29:26.315Z,995.33
2023-01-08T03:30:27.046Z,995.31
2023-01-08T03:31:27.505Z,995.22
2023-01-08T03:32:26.813Z,995.29
2023-01-08T03:33:27.085Z,995.26
2023-01-08T03:34:27.869Z,995.27
2023-01-08T03:35:27.256Z,995.21
2023-01-08T03:36:28.002Z,995.22
2023-01-08T03:37:27.673Z,995.20
2023-01-08T03:38:27.843Z,995.17
2023-01-08T03:39:28.014Z,995.18
2023-01-08T03:40:28.173Z,995.18
2023-01-08T03:41:28.341Z,995.25
2023-01-08T03:42:28.524Z,995.29
2023-01-08T03:43:29.060Z,995.27
2023-01-08T03:44:29.058Z,995.23
2023-01-08T03:45:29.871Z,995.25
2023-01-08T03:46:30.104Z,995.28
2023-01-08T03:47:29.262Z,995.29
2023-01-08T03:48:30.101Z,995.28
2023-01-08T03:49:29.648Z,995.27
2023-01-08T03:50:29.822Z,995.30
2023-01-08T03:51:29.975Z,995.30
2023-01-08T03:52:30.139Z,995.23
2023-01-08T03:53:30.316Z,995.26
2023-01-08T03:54:31.511Z,995.26
2023-01-08T03:55:30.681Z,995.22
2023-01-08T03:56:32.509Z,995.16
2023-01-08T03:57:30.999Z,995.15
2023-01-08T03:58:32.060Z,995.20
2023-01-08T03:59:32.444Z,995.14
2023-01-08T04:00:33.507Z,995.15
2023-01-08T04:01:32.671Z,995.11
2023-01-08T04:02:31.990Z,995.07
2023-01-08T04:03:31.982Z,995.18
2023-01-08T04:04:34.643Z,995.18
2023-01-08T04:05:32.375Z,995.30
2023-01-08T04:06:32.527Z,995.20
2023-01-08T04:07:32.671Z,995.19
2023-01-08T04:08:32.838Z,995.11
2023-01-08T04:09:33.551Z,995.13
2023-01-08T04:10:33.234Z,995.11
2023-01-08T04:11:34.060Z,995.15
2023-01-08T04:12:33.568Z,995.12
2023-01-08T04:13:33.740Z,995.10
2023-01-08T04:14:33.888Z,995.14
2023-01-08T04:15:34.062Z,995.12
2023-01-08T04:16:34.221Z,995.08
2023-01-08T04:17:34.380Z,995.15
2023-01-08T04:18:34.583Z,995.05
2023-01-08T04:19:34.739Z,995.04
2023-01-08T04:20:35.609Z,995.03
2023-01-08T04:21:36.052Z,995.04
2023-01-08T04:22:36.051Z,994.98
2023-01-08T04:23:35.574Z,994.96
2023-01-08T04:24:35.610Z,995.00
2023-01-08T04:25:35.761Z,995.02
2023-01-08T04:26:36.586Z,995.09
2023-01-08T04:27:36.088Z,994.99
2023-01-08T04:28:36.570Z,994.97
2023-01-08T04:29:36.476Z,994.96
2023-01-08T04:30:36.669Z,994.94
2023-01-08T04:31:36.844Z,994.98
2023-01-08T04:32:37.520Z,994.97
2023-01-08T04:33:37.138Z,994.97
2023-01-08T04:34:37.289Z,995.06
2023-01-08T04:35:37.586Z,995.05
2023-01-08T04:36:38.518Z,994.99
2023-01-08T04:37:37.754Z,995.04
2023-01-08T04:38:37.904Z,994.99
2023-01-08T04:39:38.129Z,994.99
2023-01-08T04:40:38.348Z,995.00
2023-01-08T04:41:38.510Z,995.02
2023-01-08T04:42:38.641Z,995.04
2023-01-08T04:43:39.558Z,995.05
2023-01-08T04:44:38.930Z,994.94
2023-01-08T04:45:41.059Z,995.02
2023-01-08T04:46:39.375Z,994.93
2023-01-08T04:47:39.525Z,994.87
2023-01-08T04:48:39.674Z,994.84
2023-01-08T04:49:41.524Z,994.84
2023-01-08T04:50:40.106Z,994.90
2023-01-08T04:51:40.148Z,994.80
2023-01-08T04:52:40.312Z,994.82
2023-01-08T04:53:41.070Z,994.72
2023-01-08T04:54:40.721Z,994.93
2023-01-08T04:55:41.563Z,994.89
2023-01-08T04:56:41.103Z,994.85
2023-01-08T04:57:41.255Z,994.80
2023-01-08T04:58:41.384Z,994.76
2023-01-08T04:59:41.520Z,994.83
2023-01-08T05:00:41.652Z,994.78
2023-01-08T05:01:42.134Z,994.81
2023-01-08T05:02:42.255Z,994.75
2023-01-08T05:03:43.064Z,994.75
2023-01-08T05:04:44.021Z,994.75
2023-01-08T05:05:43.128Z,994.73
2023-01-08T05:06:43.389Z,994.70
2023-01-08T05:07:42.799Z,994.73
2023-01-08T05:08:42.990Z,994.63
2023-01-08T05:09:43.133Z,994.69
2023-01-08T05:10:44.067Z,994.62
2023-01-08T05:11:43.441Z,994.72
2023-01-08T05:12:45.025Z,994.63
2023-01-08T05:13:43.782Z,994.77
2023-01-08T05:14:43.945Z,994.61
2023-01-08T05:15:44.182Z,994.64
2023-01-08T05:16:44.370Z,994.73
2023-01-08T05:17:44.602Z,994.64
2023-01-08T05:18:44.783Z,994.64
2023-01-08T05:19:45.567Z,994.69
2023-01-08T05:20:45.224Z,994.70
2023-01-08T05:21:45.489Z,994.67
2023-01-08T05:22:45.646Z,994.65
2023-01-08T05:23:46.570Z,994.61
2023-01-08T05:24:45.984Z,994.60
2023-01-08T05:25:47.026Z,994.68
2023-01-08T05:26:46.295Z,994.64
2023-01-08T05:27:46.488Z,994.64
2023-01-08T05:28:47.570Z,994.60
2023-01-08T05:29:46.854Z,994.60
2023-01-08T05:30:47.102Z,994.63
2023-01-08T05:31:47.150Z,994.63
2023-01-08T05:32:47.353Z,994.56
2023-01-08T05:33:47.518Z,994.64
2023-01-08T05:34:47.671Z,994.64
2023-01-08T05:35:47.898Z,994.65
2023-01-08T05:36:48.062Z,994.69
2023-01-08T05:37:48.209Z,994.65
2023-01-08T05:38:48.384Z,994.66
2023-01-08T05:39:48.555Z,994.61
2023-01-08T05:40:48.751Z,994.65
2023-01-08T05:41:49.543Z,994.65
2023-01-08T05:42:49.085Z,994.72
2023-01-08T05:43:49.266Z,994.70
2023-01-08T05:44:50.039Z,994.72
2023-01-08T05:45:49.653Z,994.66
2023-01-08T05:46:49.854Z,994.76
2023-01-08T05:47:50.070Z,994.72
2023-01-08T05:48:50.253Z,994.68
2023-01-08T05:49:50.443Z,994.73
2023-01-08T05:50:51.090Z,994.78
2023-01-08T05:51:51.670Z,994.75
2023-01-08T05:52:51.903Z,994.64
2023-01-08T05:53:51.580Z,994.74
2023-01-08T05:55:24.175Z,994.68
2023-01-08T05:55:52.120Z,994.65
2023-01-08T05:56:51.667Z,994.71
2023-01-08T05:57:51.845Z,994.71
2023-01-08T05:58:52.616Z,994.74
2023-01-08T05:59:52.252Z,994.75
2023-01-08T06:00:52.419Z,994.73
2023-01-08T06:01:52.625Z,994.70
2023-01-08T06:02:52.757Z,994.68
2023-01-08T06:03:54.592Z,994.70
2023-01-08T06:04:53.083Z,994.68
2023-01-08T06:05:53.235Z,994.76
2023-01-08T06:06:55.161Z,994.79
2023-01-08T06:07:53.669Z,994.70
2023-01-08T06:08:54.614Z,994.71
2023-01-08T06:09:55.088Z,994.67
2023-01-08T06:10:54.206Z,994.64
2023-01-08T06:11:55.112Z,994.71
2023-01-08T06:12:55.075Z,994.67
2023-01-08T06:13:54.741Z,994.77
2023-01-08T06:14:54.924Z,994.73
2023-01-08T06:15:56.101Z,994.63
2023-01-08T06:16:55.252Z,994.67
2023-01-08T06:17:55.428Z,994.69
2023-01-08T06:18:55.602Z,994.65
2023-01-08T06:19:55.765Z,994.63
2023-01-08T06:20:55.926Z,994.63
2023-01-08T06:21:56.122Z,994.60
2023-01-08T06:22:56.395Z,994.60
2023-01-08T06:23:56.433Z,994.60
2023-01-08T06:24:56.653Z,994.57
2023-01-08T06:25:56.840Z,994.47
2023-01-08T06:26:57.029Z,994.47
2023-01-08T06:27:58.115Z,994.51
2023-01-08T06:28:58.085Z,994.60
2023-01-08T06:29:57.595Z,994.46
2023-01-08T06:30:57.869Z,994.41
2023-01-08T06:31:58.026Z,994.51
2023-01-08T06:32:58.621Z,994.58
2023-01-08T06:34:00.157Z,994.53
2023-01-08T06:34:59.084Z,994.55
2023-01-08T06:36:00.581Z,994.54
2023-01-08T06:36:58.857Z,994.64
2023-01-08T06:37:59.719Z,994.59
2023-01-08T06:38:59.257Z,994.56
2023-01-08T06:40:00.090Z,994.60
2023-01-08T06:40:59.652Z,994.68
2023-01-08T06:41:59.871Z,994.72
2023-01-08T06:43:00.582Z,994.69
2023-01-08T06:44:00.277Z,994.73
2023-01-08T06:45:00.472Z,994.74
2023-01-08T06:46:03.716Z,994.75
2023-01-08T06:47:01.619Z,994.74
2023-01-08T06:48:01.588Z,994.79
2023-01-08T06:49:01.274Z,994.79
2023-01-08T06:50:01.477Z,994.69
2023-01-08T06:51:01.659Z,994.78
2023-01-08T06:52:01.843Z,994.72
2023-01-08T06:53:02.950Z,994.73
2023-01-08T06:54:02.321Z,994.76
2023-01-08T06:55:02.386Z,994.76
2023-01-08T06:56:02.584Z,994.70
2023-01-08T06:57:02.775Z,994.70
2023-01-08T06:58:03.028Z,994.73
2023-01-08T06:59:04.085Z,994.67
2023-01-08T07:00:03.378Z,994.65
2023-01-08T07:01:05.085Z,994.65
2023-01-08T07:02:04.240Z,994.70
2023-01-08T07:03:05.247Z,994.70
2023-01-08T07:04:04.632Z,994.70
2023-01-08T07:05:05.093Z,994.72
2023-01-08T07:06:04.485Z,994.73
2023-01-08T07:07:04.654Z,994.77
2023-01-08T07:08:04.877Z,994.77
2023-01-08T07:09:05.680Z,994.70
2023-01-08T07:10:05.233Z,994.76
2023-01-08T07:11:06.127Z,994.73
2023-01-08T07:12:05.658Z,994.79
2023-01-08T07:13:05.850Z,994.76
2023-01-08T07:14:06.024Z,994.73
2023-01-08T07:15:08.095Z,994.73
2023-01-08T07:16:06.434Z,994.76
2023-01-08T07:17:07.139Z,994.79
2023-01-08T07:18:07.588Z,994.78
2023-01-08T07:19:07.641Z,994.78
2023-01-08T07:20:07.051Z,994.79
2023-01-08T07:21:07.264Z,994.84
2023-01-08T07:22:08.100Z,994.75
2023-01-08T07:23:08.587Z,994.75
2023-01-08T07:24:08.710Z,994.82
2023-01-08T07:25:08.591Z,994.65
2023-01-08T07:26:08.110Z,994.61
2023-01-08T07:27:09.132Z,994.69
2023-01-08T07:28:09.088Z,994.74
2023-01-08T07:29:08.643Z,994.81
2023-01-08T07:30:28.133Z,994.77
2023-01-08T07:31:11.022Z,994.84
2023-01-08T07:32:11.599Z,994.86
2023-01-08T07:33:09.377Z,994.82
2023-01-08T07:34:09.554Z,994.84
2023-01-08T07:35:09.726Z,994.84
2023-01-08T07:36:10.604Z,994.80
2023-01-08T07:37:09.971Z,994.77
2023-01-08T07:38:10.138Z,994.83
2023-01-08T07:39:11.368Z,994.89
2023-01-08T07:40:10.496Z,994.88
2023-01-08T07:41:10.686Z,994.87
2023-01-08T07:42:10.831Z,994.89
2023-01-08T07:43:10.998Z,994.75
2023-01-08T07:44:11.177Z,994.77
2023-01-08T07:45:12.138Z,994.80
2023-01-08T07:46:11.533Z,994.80
2023-01-08T07:47:13.464Z,994.77
2023-01-08T07:48:11.807Z,994.76
2023-01-08T07:49:11.957Z,994.79
2023-01-08T07:50:12.128Z,994.85
2023-01-08T07:51:12.269Z,994.82
2023-01-08T07:52:13.597Z,994.75
2023-01-08T07:53:13.095Z,994.77
2023-01-08T07:54:12.744Z,994.77
2023-01-08T07:55:13.731Z,994.73
2023-01-08T07:56:13.647Z,994.74
2023-01-08T07:57:13.263Z,994.72
2023-01-08T07:58:14.599Z,994.79
2023-01-08T07:59:13.655Z,994.75
2023-01-08T08:00:13.788Z,994.72
2023-01-08T08:01:13.990Z,994.72
2023-01-08T08:02:14.240Z,994.72
2023-01-08T08:03:15.159Z,994.74
2023-01-08T08:04:14.605Z,994.74
2023-01-08T08:05:15.601Z,994.75
2023-01-08T08:06:15.010Z,994.77
2023-01-08T08:07:15.659Z,994.76
2023-01-08T08:08:15.315Z,994.80
2023-01-08T08:09:17.101Z,994.81
2023-01-08T08:10:15.701Z,994.79
2023-01-08T08:11:17.104Z,994.92
2023-01-08T08:12:15.987Z,995.05
2023-01-08T08:13:17.109Z,994.96
2023-01-08T08:14:17.094Z,995.11
2023-01-08T08:15:16.612Z,995.04
2023-01-08T08:16:17.218Z,995.04
2023-01-08T08:17:17.605Z,995.10
2023-01-08T08:18:17.140Z,995.06
2023-01-08T08:19:17.310Z,995.04
2023-01-08T08:20:19.977Z,995.09
2023-01-08T08:21:18.647Z,995.04
2023-01-08T08:22:17.914Z,995.09
2023-01-08T08:23:18.980Z,995.11
2023-01-08T08:24:20.106Z,995.06
2023-01-08T08:25:18.580Z,995.14
2023-01-08T08:26:18.600Z,995.08
2023-01-08T08:27:18.808Z,995.08
2023-01-08T08:28:18.973Z,995.02
2023-01-08T08:29:19.136Z,995.07
2023-01-08T08:30:19.658Z,995.04
2023-01-08T08:31:19.473Z,995.08
2023-01-08T08:32:20.603Z,995.04
2023-01-08T08:33:19.873Z,995.01
2023-01-08T08:34:20.090Z,995.03
2023-01-08T08:35:20.260Z,995.03
2023-01-08T08:36:21.144Z,994.99
2023-01-08T08:37:20.664Z,995.09
2023-01-08T08:38:23.835Z,995.04
2023-01-08T08:39:21.006Z,995.01
2023-01-08T08:40:22.107Z,994.91
2023-01-08T08:41:22.104Z,994.94
2023-01-08T08:42:21.529Z,994.97
2023-01-08T08:43:21.688Z,994.98
2023-01-08T08:44:23.647Z,994.96
2023-01-08T08:45:22.020Z,994.94
2023-01-08T08:46:22.288Z,995.09
2023-01-08T08:47:22.374Z,995.01
2023-01-08T08:48:23.102Z,994.95
2023-01-08T08:49:22.761Z,994.87
2023-01-08T08:50:23.173Z,994.91
2023-01-08T08:51:23.148Z,994.92
2023-01-08T08:52:24.112Z,994.90
2023-01-08T08:53:25.841Z,994.96
2023-01-08T08:54:24.609Z,994.82
2023-01-08T08:55:23.753Z,994.86
2023-01-08T08:56:24.062Z,994.84
2023-01-08T08:57:24.123Z,994.90
2023-01-08T08:58:24.661Z,994.97
2023-01-08T08:59:24.459Z,994.90
2023-01-08T09:00:24.619Z,994.95
2023-01-08T09:01:25.611Z,994.95
2023-01-08T09:02:26.799Z,994.94
2023-01-08T09:03:25.216Z,994.92
2023-01-08T09:04:25.682Z,994.95
2023-01-08T09:05:25.456Z,994.95
2023-01-08T09:06:25.641Z,994.95
2023-01-08T09:07:25.840Z,995.01
2023-01-08T09:08:27.622Z,994.87
2023-01-08T09:09:26.292Z,994.96
2023-01-08T09:10:26.599Z,994.93
2023-01-08T09:11:26.750Z,994.96
2023-01-08T09:12:27.659Z,994.92
2023-01-08T09:13:26.944Z,994.98
2023-01-08T09:14:28.127Z,995.01
2023-01-08T09:15:27.277Z,995.00
2023-01-08T09:16:28.180Z,995.01
2023-01-08T09:17:27.605Z,994.98
2023-01-08T09:18:29.617Z,995.04
2023-01-08T09:19:27.994Z,995.05
2023-01-08T09:20:28.227Z,995.03
2023-01-08T09:21:28.457Z,995.10
2023-01-08T09:22:28.641Z,995.03
2023-01-08T09:23:29.622Z,995.00
2023-01-08T09:24:29.027Z,995.07
2023-01-08T09:25:29.170Z,995.02
2023-01-08T09:26:29.352Z,995.02
2023-01-08T09:27:29.526Z,994.94
2023-01-08T09:28:29.692Z,994.97
2023-01-08T09:29:30.655Z,994.91
2023-01-08T09:30:30.045Z,994.99
2023-01-08T09:31:31.138Z,994.83
2023-01-08T09:32:30.983Z,994.83
2023-01-08T09:33:30.634Z,994.72
2023-01-08T09:34:30.800Z,994.76
2023-01-08T09:35:30.952Z,994.72
2023-01-08T09:36:31.671Z,994.65
2023-01-08T09:37:31.299Z,994.54
2023-01-08T09:38:31.688Z,994.44
2023-01-08T09:39:31.621Z,994.29
2023-01-08T09:40:31.787Z,994.20
2023-01-08T09:41:32.718Z,994.08
2023-01-08T09:42:32.141Z,994.05
2023-01-08T09:43:32.332Z,993.96
2023-01-08T09:44:32.529Z,993.83
2023-01-08T09:45:32.715Z,993.77
2023-01-08T09:46:32.950Z,993.57
2023-01-08T09:47:33.130Z,993.43
2023-01-08T09:48:33.307Z,993.23
2023-01-08T09:49:33.489Z,993.04
2023-01-08T09:50:33.666Z,992.77
2023-01-08T09:51:33.812Z,992.59
2023-01-08T09:52:33.986Z,992.37
2023-01-08T09:53:34.188Z,992.18
2023-01-08T09:54:34.371Z,992.01
2023-01-08T09:55:35.130Z,991.86
2023-01-08T09:56:35.725Z,991.72
2023-01-08T09:57:36.491Z,991.49
2023-01-08T09:58:35.163Z,991.35
2023-01-08T09:59:35.354Z,991.13
2023-01-08T10:00:35.641Z,990.94
2023-01-08T10:01:36.833Z,990.74
2023-01-08T10:02:36.753Z,990.67
2023-01-08T10:03:36.630Z,990.58
2023-01-08T10:04:36.183Z,990.67
2023-01-08T10:05:36.412Z,990.65
2023-01-08T10:06:38.133Z,990.71
2023-01-08T10:07:37.493Z,990.84
2023-01-08T10:08:36.925Z,990.81
2023-01-08T10:09:37.674Z,990.83
2023-01-08T10:10:37.678Z,990.84
2023-01-08T10:11:37.503Z,990.86
2023-01-08T10:12:38.673Z,990.88
2023-01-08T10:13:38.630Z,990.95
2023-01-08T10:14:38.166Z,991.10
2023-01-08T10:15:38.372Z,990.97
2023-01-08T10:16:40.495Z,990.87
2023-01-08T10:17:39.770Z,990.76
2023-01-08T10:18:38.944Z,990.68
2023-01-08T10:19:39.188Z,990.72
2023-01-08T10:20:39.413Z,990.54
2023-01-08T10:21:39.643Z,990.49
2023-01-08T10:22:40.636Z,990.32
2023-01-08T10:23:39.976Z,990.43
2023-01-08T10:24:42.139Z,990.25
2023-01-08T10:25:41.175Z,990.36
2023-01-08T10:26:40.612Z,990.43
2023-01-08T10:27:41.728Z,990.53
2023-01-08T10:28:41.018Z,990.65
2023-01-08T10:29:41.207Z,990.70
2023-01-08T10:30:41.390Z,990.88
2023-01-08T10:31:41.623Z,990.98
2023-01-08T10:32:43.199Z,991.21
2023-01-08T10:33:41.865Z,991.30
2023-01-08T10:34:42.032Z,991.40
2023-01-08T10:35:42.201Z,991.34
2023-01-08T10:36:42.396Z,991.41
2023-01-08T10:37:42.710Z,991.42
2023-01-08T10:38:42.815Z,991.54
2023-01-08T10:39:44.644Z,991.51
2023-01-08T10:40:43.202Z,991.39
2023-01-08T10:41:44.158Z,991.20
2023-01-08T10:42:43.542Z,991.16
2023-01-08T10:43:45.144Z,990.95
2023-01-08T10:44:43.900Z,990.77
2023-01-08T10:45:44.122Z,990.74
2023-01-08T10:46:45.160Z,990.64
2023-01-08T10:47:44.405Z,990.64
2023-01-08T10:48:44.582Z,990.48
2023-01-08T10:49:44.777Z,990.42
2023-01-08T10:50:44.955Z,990.33
2023-01-08T10:51:45.188Z,990.25
2023-01-08T10:52:45.360Z,990.18
2023-01-08T10:53:46.182Z,990.14
2023-01-08T10:54:45.679Z,990.14
2023-01-08T10:55:45.827Z,990.12
2023-01-08T10:56:45.995Z,990.08
2023-01-08T10:57:46.136Z,989.97
2023-01-08T10:58:46.311Z,990.08
2023-01-08T10:59:46.441Z,990.06
2023-01-08T11:00:46.596Z,990.10
2023-01-08T11:01:47.771Z,990.16
2023-01-08T11:02:46.972Z,990.18
2023-01-08T11:03:49.149Z,990.27
2023-01-08T11:04:47.394Z,990.30
2023-01-08T11:05:47.574Z,990.45
2023-01-08T11:06:47.746Z,990.44
2023-01-08T11:07:48.694Z,990.41
2023-01-08T11:08:49.469Z,990.43
2023-01-08T11:09:48.260Z,990.41
2023-01-08T11:10:48.446Z,990.42
2023-01-08T11:11:48.618Z,990.39
2023-01-08T11:12:48.776Z,990.44
2023-01-08T11:13:49.640Z,990.28
2023-01-08T11:14:51.697Z,990.19
2023-01-08T11:15:50.406Z,990.34
2023-01-08T11:16:50.551Z,990.21
2023-01-08T11:17:50.190Z,990.21
2023-01-08T11:18:52.145Z,990.10
2023-01-08T11:19:49.988Z,990.13
2023-01-08T11:20:50.159Z,990.01
2023-01-08T11:21:51.184Z,989.96
2023-01-08T11:22:51.461Z,989.93
2023-01-08T11:23:51.198Z,989.79
2023-01-08T11:24:50.855Z,989.78
2023-01-08T11:25:51.033Z,989.66
2023-01-08T11:26:51.184Z,989.73
2023-01-08T11:27:52.194Z,989.66
2023-01-08T11:28:51.491Z,989.78
2023-01-08T11:29:51.670Z,989.79
2023-01-08T11:30:54.154Z,989.80
2023-01-08T11:31:52.127Z,989.80
2023-01-08T11:32:53.155Z,989.76
2023-01-08T11:33:53.153Z,989.80
2023-01-08T11:34:54.101Z,989.88
2023-01-08T11:35:52.737Z,990.01
2023-01-08T11:36:54.155Z,990.08
2023-01-08T11:37:53.074Z,990.35
2023-01-08T11:38:53.235Z,990.35
2023-01-08T11:39:54.194Z,990.45
2023-01-08T11:40:53.621Z,990.59
2023-01-08T11:41:53.813Z,990.68
2023-01-08T11:42:54.030Z,990.79
2023-01-08T11:43:55.158Z,990.86
2023-01-08T11:44:54.443Z,990.80
2023-01-08T11:45:54.700Z,990.79
2023-01-08T11:46:54.795Z,990.82
2023-01-08T11:47:55.021Z,990.75
2023-01-08T11:48:55.209Z,990.76
2023-01-08T11:49:56.204Z,990.83
2023-01-08T11:50:56.209Z,990.92
2023-01-08T11:51:56.661Z,990.93
2023-01-08T11:52:55.948Z,991.07
2023-01-08T11:53:56.210Z,991.08
2023-01-08T11:54:58.157Z,991.13
2023-01-08T11:55:57.165Z,991.15
2023-01-08T11:56:56.612Z,991.25
2023-01-08T11:57:56.807Z,991.27
2023-01-08T11:58:56.991Z,991.31
2023-01-08T11:59:57.191Z,991.34
2023-01-08T12:00:57.398Z,991.31
2023-01-08T12:01:58.245Z,991.42
2023-01-08T12:02:58.718Z,991.45
2023-01-08T12:03:57.988Z,991.46
2023-01-08T12:04:58.211Z,991.52
2023-01-08T12:05:59.204Z,991.47
2023-01-08T12:06:58.587Z,991.60
2023-01-08T12:07:59.529Z,991.62
2023-01-08T12:08:59.530Z,991.57
2023-01-08T12:09:59.091Z,991.57
2023-01-08T12:11:00.166Z,991.53
2023-01-08T12:11:59.716Z,991.46
2023-01-08T12:13:00.203Z,991.52
2023-01-08T12:14:00.715Z,991.44
2023-01-08T12:15:00.671Z,991.50
2023-01-08T12:16:00.209Z,991.51
2023-01-08T12:17:02.029Z,991.60
2023-01-08T12:18:00.506Z,991.52
2023-01-08T12:19:00.657Z,991.53
2023-01-08T12:20:00.824Z,991.58
2023-01-08T12:21:01.020Z,991.62
2023-01-08T12:22:02.174Z,991.57
2023-01-08T12:23:02.174Z,991.50
2023-01-08T12:24:01.551Z,991.53
2023-01-08T12:25:02.673Z,991.57
2023-01-08T12:26:01.919Z,991.55
2023-01-08T12:27:02.132Z,991.60
2023-01-08T12:28:03.176Z,991.63
2023-01-08T12:29:02.449Z,991.53
2023-01-08T12:30:02.654Z,991.58
2023-01-08T12:31:03.674Z,991.54